sensor_id;sensor_type;location;lat;lon;timestamp;P1;durP1;ratioP1;P2;durP2;ratioP2
45232;SDS011;30969;51.052;17.056;2023-05-07T04:55:10;5.78;;;4.60;;
45232;SDS011;30969;51.052;17.056;2023-05-07T05:00:14;5.45;;;4.30;;
45232;SDS011;30969;51.052;17.056;2023-05-07T05:05:18;7.20;;;4.28;;
45232;SDS011;30969;51.052;17.056;2023-05-07T05:10:23;5.68;;;4.03;;
45232;SDS011;30969;51.052;17.056;2023-05-07T05:15:27;3.40;;;3.10;;
45232;SDS011;30969;51.052;17.056;2023-05-07T05:20:34;4.65;;;3.53;;
45232;SDS011;30969;51.052;17.056;2023-05-07T05:25:39;6.18;;;3.58;;
45232;SDS011;30969;51.052;17.056;2023-05-07T05:30:42;4.45;;;3.28;;
45232;SDS011;30969;51.052;17.056;2023-05-07T05:35:46;5.35;;;3.28;;
45232;SDS011;30969;51.052;17.056;2023-05-07T05:40:51;4.85;;;3.70;;
45232;SDS011;30969;51.052;17.056;2023-05-07T05:45:57;4.63;;;3.42;;
45232;SDS011;30969;51.052;17.056;2023-05-07T05:51:02;4.90;;;3.95;;
45232;SDS011;30969;51.052;17.056;2023-05-07T05:56:07;7.80;;;4.80;;
45232;SDS011;30969;51.052;17.056;2023-05-07T06:01:11;8.23;;;5.75;;
45232;SDS011;30969;51.052;17.056;2023-05-07T06:06:14;4.75;;;3.80;;
45232;SDS011;30969;51.052;17.056;2023-05-07T06:11:19;6.47;;;4.72;;
45232;SDS011;30969;51.052;17.056;2023-05-07T06:16:24;4.38;;;3.40;;
45232;SDS011;30969;51.052;17.056;2023-05-07T06:21:27;4.68;;;3.70;;
45232;SDS011;30969;51.052;17.056;2023-05-07T06:26:33;7.15;;;4.25;;
45232;SDS011;30969;51.052;17.056;2023-05-07T06:31:36;3.60;;;3.13;;
45232;SDS011;30969;51.052;17.056;2023-05-07T06:36:40;4.22;;;3.00;;
45232;SDS011;30969;51.052;17.056;2023-05-07T06:41:46;4.75;;;2.88;;
45232;SDS011;30969;51.052;17.056;2023-05-07T06:46:50;4.55;;;2.83;;
45232;SDS011;30969;51.052;17.056;2023-05-07T06:51:53;4.82;;;3.50;;
45232;SDS011;30969;51.052;17.056;2023-05-07T06:57:00;4.70;;;3.60;;
45232;SDS011;30969;51.052;17.056;2023-05-07T07:02:04;8.75;;;5.38;;
45232;SDS011;30969;51.052;17.056;2023-05-07T07:07:08;8.55;;;4.70;;
45232;SDS011;30969;51.052;17.056;2023-05-07T07:12:13;5.28;;;4.05;;
45232;SDS011;30969;51.052;17.056;2023-05-07T07:17:17;6.88;;;4.03;;
45232;SDS011;30969;51.052;17.056;2023-05-07T07:22:21;4.30;;;2.97;;
45232;SDS011;30969;51.052;17.056;2023-05-07T07:27:25;4.35;;;3.67;;
45232;SDS011;30969;51.052;17.056;2023-05-07T07:32:29;4.15;;;3.20;;
45232;SDS011;30969;51.052;17.056;2023-05-07T07:37:35;4.03;;;2.80;;
45232;SDS011;30969;51.052;17.056;2023-05-07T07:42:40;4.05;;;3.05;;
45232;SDS011;30969;51.052;17.056;2023-05-07T07:47:46;5.88;;;3.75;;
45232;SDS011;30969;51.052;17.056;2023-05-07T07:52:50;4.57;;;3.85;;
45232;SDS011;30969;51.052;17.056;2023-05-07T07:57:55;4.85;;;3.55;;
45232;SDS011;30969;51.052;17.056;2023-05-07T08:02:59;5.18;;;3.13;;
45232;SDS011;30969;51.052;17.056;2023-05-07T08:08:03;5.80;;;3.92;;
45232;SDS011;30969;51.052;17.056;2023-05-07T08:13:08;4.68;;;3.83;;
45232;SDS011;30969;51.052;17.056;2023-05-07T08:18:12;11.02;;;5.90;;
45232;SDS011;30969;51.052;17.056;2023-05-07T08:23:16;7.45;;;4.00;;
45232;SDS011;30969;51.052;17.056;2023-05-07T08:28:24;8.13;;;5.45;;
45232;SDS011;30969;51.052;17.056;2023-05-07T08:33:28;5.65;;;4.30;;
45232;SDS011;30969;51.052;17.056;2023-05-07T08:38:33;5.97;;;4.07;;
45232;SDS011;30969;51.052;17.056;2023-05-07T08:43:38;5.05;;;3.97;;
45232;SDS011;30969;51.052;17.056;2023-05-07T08:48:47;5.60;;;3.90;;
45232;SDS011;30969;51.052;17.056;2023-05-07T08:53:52;4.75;;;4.05;;
45232;SDS011;30969;51.052;17.056;2023-05-07T08:58:56;6.28;;;4.13;;
45232;SDS011;30969;51.052;17.056;2023-05-07T09:04:00;6.95;;;4.85;;
45232;SDS011;30969;51.052;17.056;2023-05-07T09:09:05;7.53;;;5.32;;
45232;SDS011;30969;51.052;17.056;2023-05-07T09:14:09;8.63;;;5.40;;
45232;SDS011;30969;51.052;17.056;2023-05-07T09:19:13;6.03;;;4.78;;
45232;SDS011;30969;51.052;17.056;2023-05-07T09:24:17;10.30;;;4.95;;
45232;SDS011;30969;51.052;17.056;2023-05-07T09:29:22;6.78;;;5.70;;
45232;SDS011;30969;51.052;17.056;2023-05-07T09:34:27;5.47;;;3.90;;
45232;SDS011;30969;51.052;17.056;2023-05-07T09:39:38;6.57;;;4.07;;
45232;SDS011;30969;51.052;17.056;2023-05-07T09:44:44;6.13;;;4.13;;
45232;SDS011;30969;51.052;17.056;2023-05-07T09:49:48;6.15;;;4.43;;
45232;SDS011;30969;51.052;17.056;2023-05-07T09:54:56;5.00;;;4.13;;
45232;SDS011;30969;51.052;17.056;2023-05-07T10:00:05;6.68;;;4.50;;
45232;SDS011;30969;51.052;17.056;2023-05-07T10:05:10;5.28;;;4.60;;
45232;SDS011;30969;51.052;17.056;2023-05-07T10:10:15;7.03;;;5.30;;
45232;SDS011;30969;51.052;17.056;2023-05-07T10:15:20;5.82;;;4.68;;
45232;SDS011;30969;51.052;17.056;2023-05-07T10:20:26;5.47;;;4.15;;
45232;SDS011;30969;51.052;17.056;2023-05-07T10:25:31;5.00;;;3.70;;
45232;SDS011;30969;51.052;17.056;2023-05-07T10:30:38;6.38;;;3.97;;
45232;SDS011;30969;51.052;17.056;2023-05-07T10:35:50;5.20;;;3.35;;
45232;SDS011;30969;51.052;17.056;2023-05-07T10:40:58;5.22;;;4.15;;
45232;SDS011;30969;51.052;17.056;2023-05-07T10:46:13;5.45;;;4.05;;
45232;SDS011;30969;51.052;17.056;2023-05-07T10:51:21;4.53;;;3.83;;
45232;SDS011;30969;51.052;17.056;2023-05-07T10:56:25;6.82;;;3.50;;
45232;SDS011;30969;51.052;17.056;2023-05-07T11:01:52;6.95;;;4.85;;
45232;SDS011;30969;51.052;17.056;2023-05-07T11:12:51;5.70;;;3.58;;
45232;SDS011;30969;51.052;17.056;2023-05-07T11:17:57;6.10;;;3.40;;
45232;SDS011;30969;51.052;17.056;2023-05-07T11:23:02;4.53;;;2.92;;
45232;SDS011;30969;51.052;17.056;2023-05-07T11:28:06;4.35;;;2.95;;
45232;SDS011;30969;51.052;17.056;2023-05-07T11:33:14;6.28;;;3.05;;
45232;SDS011;30969;51.052;17.056;2023-05-07T11:38:21;5.68;;;3.90;;
45232;SDS011;30969;51.052;17.056;2023-05-07T11:43:25;4.43;;;3.13;;
45232;SDS011;30969;51.052;17.056;2023-05-07T11:48:30;5.55;;;3.22;;
45232;SDS011;30969;51.052;17.056;2023-05-07T11:53:36;5.28;;;2.78;;
45232;SDS011;30969;51.052;17.056;2023-05-07T11:58:41;3.08;;;2.20;;
45232;SDS011;30969;51.052;17.056;2023-05-07T12:03:46;3.67;;;2.63;;
45232;SDS011;30969;51.052;17.056;2023-05-07T12:08:51;5.00;;;3.28;;
45232;SDS011;30969;51.052;17.056;2023-05-07T12:13:56;3.75;;;2.90;;
45232;SDS011;30969;51.052;17.056;2023-05-07T12:19:02;3.80;;;2.95;;
45232;SDS011;30969;51.052;17.056;2023-05-07T12:24:07;4.75;;;2.88;;
45232;SDS011;30969;51.052;17.056;2023-05-07T12:29:11;4.57;;;4.10;;
45232;SDS011;30969;51.052;17.056;2023-05-07T12:34:20;4.10;;;3.47;;
45232;SDS011;30969;51.052;17.056;2023-05-07T12:39:25;4.53;;;3.28;;
45232;SDS011;30969;51.052;17.056;2023-05-07T12:44:30;5.85;;;3.33;;
45232;SDS011;30969;51.052;17.056;2023-05-07T12:49:37;6.05;;;3.22;;
45232;SDS011;30969;51.052;17.056;2023-05-07T12:54:42;5.13;;;3.63;;
45232;SDS011;30969;51.052;17.056;2023-05-07T12:59:47;5.15;;;3.65;;
45232;SDS011;30969;51.052;17.056;2023-05-07T13:04:52;6.07;;;3.40;;
45232;SDS011;30969;51.052;17.056;2023-05-07T13:09:56;4.38;;;3.45;;
45232;SDS011;30969;51.052;17.056;2023-05-07T13:14:59;7.85;;;4.05;;
45232;SDS011;30969;51.052;17.056;2023-05-07T13:20:05;7.18;;;3.45;;
45232;SDS011;30969;51.052;17.056;2023-05-07T13:25:10;5.38;;;3.72;;
45232;SDS011;30969;51.052;17.056;2023-05-07T13:30:15;6.32;;;4.32;;
45232;SDS011;30969;51.052;17.056;2023-05-07T13:35:20;5.35;;;3.72;;
45232;SDS011;30969;51.052;17.056;2023-05-07T13:40:24;4.63;;;3.33;;
45232;SDS011;30969;51.052;17.056;2023-05-07T13:45:27;7.00;;;4.10;;
45232;SDS011;30969;51.052;17.056;2023-05-07T13:50:33;6.80;;;4.88;;
45232;SDS011;30969;51.052;17.056;2023-05-07T13:55:37;6.57;;;4.15;;
45232;SDS011;30969;51.052;17.056;2023-05-07T14:00:40;7.22;;;4.13;;
45232;SDS011;30969;51.052;17.056;2023-05-07T14:05:45;5.15;;;3.40;;
45232;SDS011;30969;51.052;17.056;2023-05-07T14:10:51;6.03;;;3.65;;
45232;SDS011;30969;51.052;17.056;2023-05-07T14:15:54;4.53;;;3.67;;
45232;SDS011;30969;51.052;17.056;2023-05-07T14:20:59;4.35;;;3.65;;
45232;SDS011;30969;51.052;17.056;2023-05-07T14:26:03;4.22;;;3.30;;
45232;SDS011;30969;51.052;17.056;2023-05-07T14:31:06;5.45;;;3.53;;
45232;SDS011;30969;51.052;17.056;2023-05-07T14:36:11;6.68;;;3.63;;
45232;SDS011;30969;51.052;17.056;2023-05-07T14:41:19;6.28;;;4.18;;
45232;SDS011;30969;51.052;17.056;2023-05-07T14:46:23;4.35;;;3.35;;
45232;SDS011;30969;51.052;17.056;2023-05-07T14:51:30;3.90;;;3.25;;
45232;SDS011;30969;51.052;17.056;2023-05-07T14:56:34;4.25;;;3.22;;
45232;SDS011;30969;51.052;17.056;2023-05-07T15:01:38;5.45;;;3.55;;
45232;SDS011;30969;51.052;17.056;2023-05-07T15:06:48;5.88;;;4.10;;
45232;SDS011;30969;51.052;17.056;2023-05-07T15:11:51;5.10;;;3.92;;
45232;SDS011;30969;51.052;17.056;2023-05-07T15:16:55;6.40;;;4.65;;
45232;SDS011;30969;51.052;17.056;2023-05-07T15:22:00;5.53;;;3.63;;
45232;SDS011;30969;51.052;17.056;2023-05-07T15:27:04;6.28;;;4.50;;
45232;SDS011;30969;51.052;17.056;2023-05-07T15:32:09;5.25;;;4.20;;
45232;SDS011;30969;51.052;17.056;2023-05-07T15:37:14;5.47;;;3.75;;
45232;SDS011;30969;51.052;17.056;2023-05-07T15:42:17;6.72;;;4.78;;
45232;SDS011;30969;51.052;17.056;2023-05-07T15:47:21;9.23;;;5.03;;
45232;SDS011;30969;51.052;17.056;2023-05-07T15:52:26;17.85;;;8.38;;
45232;SDS011;30969;51.052;17.056;2023-05-07T15:57:30;7.03;;;4.25;;
45232;SDS011;30969;51.052;17.056;2023-05-07T16:02:34;8.07;;;4.82;;
45232;SDS011;30969;51.052;17.056;2023-05-07T16:07:39;8.38;;;4.65;;
45232;SDS011;30969;51.052;17.056;2023-05-07T16:12:44;7.97;;;4.68;;
45232;SDS011;30969;51.052;17.056;2023-05-07T16:17:48;12.02;;;7.63;;
45232;SDS011;30969;51.052;17.056;2023-05-07T16:22:56;5.80;;;4.20;;
45232;SDS011;30969;51.052;17.056;2023-05-07T16:28:01;6.30;;;4.25;;
45232;SDS011;30969;51.052;17.056;2023-05-07T16:33:04;7.50;;;4.40;;
45232;SDS011;30969;51.052;17.056;2023-05-07T16:38:10;6.35;;;4.45;;
45232;SDS011;30969;51.052;17.056;2023-05-07T16:43:13;7.95;;;4.50;;
45232;SDS011;30969;51.052;17.056;2023-05-07T16:48:17;5.47;;;4.57;;
45232;SDS011;30969;51.052;17.056;2023-05-07T16:53:23;5.78;;;3.97;;
45232;SDS011;30969;51.052;17.056;2023-05-07T16:58:27;6.20;;;4.60;;
45232;SDS011;30969;51.052;17.056;2023-05-07T17:03:31;7.68;;;4.38;;
45232;SDS011;30969;51.052;17.056;2023-05-07T17:08:36;6.70;;;4.82;;
45232;SDS011;30969;51.052;17.056;2023-05-07T17:13:43;6.93;;;4.47;;
45232;SDS011;30969;51.052;17.056;2023-05-07T17:18:46;7.32;;;4.93;;
45232;SDS011;30969;51.052;17.056;2023-05-07T17:23:51;6.82;;;5.18;;
45232;SDS011;30969;51.052;17.056;2023-05-07T17:28:54;7.15;;;5.03;;
45232;SDS011;30969;51.052;17.056;2023-05-07T17:33:58;8.05;;;5.18;;
45232;SDS011;30969;51.052;17.056;2023-05-07T17:39:03;9.15;;;5.22;;
45232;SDS011;30969;51.052;17.056;2023-05-07T17:44:06;8.57;;;5.32;;
45232;SDS011;30969;51.052;17.056;2023-05-07T17:49:10;9.50;;;6.45;;
45232;SDS011;30969;51.052;17.056;2023-05-07T17:54:15;8.95;;;6.10;;
45232;SDS011;30969;51.052;17.056;2023-05-07T17:59:18;8.88;;;6.32;;
45232;SDS011;30969;51.052;17.056;2023-05-07T18:04:22;8.73;;;5.28;;
45232;SDS011;30969;51.052;17.056;2023-05-07T18:09:28;7.75;;;4.80;;
45232;SDS011;30969;51.052;17.056;2023-05-07T18:14:32;7.72;;;5.18;;
45232;SDS011;30969;51.052;17.056;2023-05-07T18:19:35;8.15;;;5.25;;
45232;SDS011;30969;51.052;17.056;2023-05-07T18:24:40;9.65;;;5.93;;
45232;SDS011;30969;51.052;17.056;2023-05-07T18:29:44;8.15;;;5.78;;
45232;SDS011;30969;51.052;17.056;2023-05-07T18:34:47;8.68;;;5.85;;
45232;SDS011;30969;51.052;17.056;2023-05-07T18:39:52;8.20;;;5.13;;
45232;SDS011;30969;51.052;17.056;2023-05-07T18:44:56;8.93;;;5.25;;
45232;SDS011;30969;51.052;17.056;2023-05-07T18:49:59;10.32;;;6.38;;
45232;SDS011;30969;51.052;17.056;2023-05-07T18:55:05;8.52;;;6.15;;
45232;SDS011;30969;51.052;17.056;2023-05-07T19:00:09;7.30;;;5.50;;
45232;SDS011;30969;51.052;17.056;2023-05-07T19:05:14;7.88;;;5.80;;
45232;SDS011;30969;51.052;17.056;2023-05-07T19:10:20;8.32;;;5.65;;
45232;SDS011;30969;51.052;17.056;2023-05-07T19:15:24;8.35;;;6.38;;
45232;SDS011;30969;51.052;17.056;2023-05-07T19:20:29;8.52;;;5.90;;
45232;SDS011;30969;51.052;17.056;2023-05-07T19:25:33;9.05;;;6.15;;
45232;SDS011;30969;51.052;17.056;2023-05-07T19:30:37;8.38;;;6.00;;
45232;SDS011;30969;51.052;17.056;2023-05-07T19:35:41;8.45;;;5.38;;
45232;SDS011;30969;51.052;17.056;2023-05-07T19:40:47;9.82;;;5.93;;
45232;SDS011;30969;51.052;17.056;2023-05-07T19:45:51;8.05;;;5.57;;
45232;SDS011;30969;51.052;17.056;2023-05-07T19:50:55;12.68;;;8.27;;
45232;SDS011;30969;51.052;17.056;2023-05-07T19:56:05;8.05;;;5.82;;
45232;SDS011;30969;51.052;17.056;2023-05-07T20:01:10;6.68;;;5.30;;
45232;SDS011;30969;51.052;17.056;2023-05-07T20:06:13;8.38;;;6.25;;
45232;SDS011;30969;51.052;17.056;2023-05-07T20:11:18;9.07;;;5.80;;
45232;SDS011;30969;51.052;17.056;2023-05-07T20:16:22;6.95;;;4.90;;
45232;SDS011;30969;51.052;17.056;2023-05-07T20:21:26;7.10;;;5.05;;
45232;SDS011;30969;51.052;17.056;2023-05-07T20:26:31;6.63;;;4.82;;
45232;SDS011;30969;51.052;17.056;2023-05-07T20:31:34;6.00;;;4.55;;
45232;SDS011;30969;51.052;17.056;2023-05-07T20:36:38;6.45;;;4.75;;
45232;SDS011;30969;51.052;17.056;2023-05-07T20:41:43;5.80;;;4.30;;
45232;SDS011;30969;51.052;17.056;2023-05-07T20:46:46;6.13;;;4.43;;
45232;SDS011;30969;51.052;17.056;2023-05-07T20:51:50;6.03;;;4.10;;
45232;SDS011;30969;51.052;17.056;2023-05-07T20:56:55;7.68;;;4.63;;
45232;SDS011;30969;51.052;17.056;2023-05-07T21:01:59;6.15;;;4.10;;
45232;SDS011;30969;51.052;17.056;2023-05-07T21:07:02;6.15;;;4.10;;
45232;SDS011;30969;51.052;17.056;2023-05-07T21:12:08;5.50;;;3.55;;
45232;SDS011;30969;51.052;17.056;2023-05-07T21:17:11;4.47;;;3.08;;
45232;SDS011;30969;51.052;17.056;2023-05-07T21:22:15;3.75;;;2.50;;
45232;SDS011;30969;51.052;17.056;2023-05-07T21:27:20;4.22;;;2.80;;
45232;SDS011;30969;51.052;17.056;2023-05-07T21:32:24;4.85;;;3.15;;
45232;SDS011;30969;51.052;17.056;2023-05-07T21:37:27;6.25;;;3.05;;
45232;SDS011;30969;51.052;17.056;2023-05-07T21:42:32;5.20;;;3.67;;
45232;SDS011;30969;51.052;17.056;2023-05-07T21:47:36;5.75;;;3.10;;
45232;SDS011;30969;51.052;17.056;2023-05-07T21:52:39;4.93;;;2.95;;
45232;SDS011;30969;51.052;17.056;2023-05-07T21:57:44;4.97;;;2.83;;
45232;SDS011;30969;51.052;17.056;2023-05-07T22:03:05;5.20;;;2.95;;
45232;SDS011;30969;51.052;17.056;2023-05-07T22:08:08;4.57;;;2.65;;
45232;SDS011;30969;51.052;17.056;2023-05-07T22:13:13;6.00;;;2.95;;
45232;SDS011;30969;51.052;17.056;2023-05-07T22:18:17;4.93;;;3.25;;
45232;SDS011;30969;51.052;17.056;2023-05-07T22:23:21;5.18;;;3.20;;
45232;SDS011;30969;51.052;17.056;2023-05-07T22:28:26;4.60;;;3.28;;
